地図

経路データ

SID SEASON NUMBER BASIN SUBBASIN NAME ISO_TIME NATURE LAT LON WMO_WIND WMO_PRES WMO_AGENCY TRACK_TYPE DIST2LAND LANDFALL IFLAG USA_AGENCY USA_ATCF_ID USA_LAT USA_LON USA_RECORD USA_STATUS USA_WIND USA_PRES USA_SSHS USA_R34_NE USA_R34_SE USA_R34_SW USA_R34_NW USA_R50_NE USA_R50_SE USA_R50_SW USA_R50_NW USA_R64_NE USA_R64_SE USA_R64_SW USA_R64_NW USA_POCI USA_ROCI USA_RMW USA_EYE TOKYO_LAT TOKYO_LON TOKYO_GRADE TOKYO_WIND TOKYO_PRES TOKYO_R50_DIR TOKYO_R50_LONG TOKYO_R50_SHORT TOKYO_R30_DIR TOKYO_R30_LONG TOKYO_R30_SHORT TOKYO_LAND CMA_LAT CMA_LON CMA_CAT CMA_WIND CMA_PRES HKO_LAT HKO_LON HKO_CAT HKO_WIND HKO_PRES NEWDELHI_LAT NEWDELHI_LON NEWDELHI_GRADE NEWDELHI_WIND NEWDELHI_PRES NEWDELHI_CI NEWDELHI_DP NEWDELHI_POCI REUNION_LAT REUNION_LON REUNION_TYPE REUNION_WIND REUNION_PRES REUNION_TNUM REUNION_CI REUNION_RMW REUNION_R34_NE REUNION_R34_SE REUNION_R34_SW REUNION_R34_NW REUNION_R50_NE REUNION_R50_SE REUNION_R50_SW REUNION_R50_NW REUNION_R64_NE REUNION_R64_SE REUNION_R64_SW REUNION_R64_NW BOM_LAT BOM_LON BOM_TYPE BOM_WIND BOM_PRES BOM_TNUM BOM_CI BOM_RMW BOM_R34_NE BOM_R34_SE BOM_R34_SW BOM_R34_NW BOM_R50_NE BOM_R50_SE BOM_R50_SW BOM_R50_NW BOM_R64_NE BOM_R64_SE BOM_R64_SW BOM_R64_NW BOM_ROCI BOM_POCI BOM_EYE BOM_POS_METHOD BOM_PRES_METHOD NADI_LAT NADI_LON NADI_CAT NADI_WIND NADI_PRES WELLINGTON_LAT WELLINGTON_LON WELLINGTON_WIND WELLINGTON_PRES DS824_LAT DS824_LON DS824_STAGE DS824_WIND DS824_PRES TD9636_LAT TD9636_LON TD9636_STAGE TD9636_WIND TD9636_PRES TD9635_LAT TD9635_LON TD9635_WIND TD9635_PRES TD9635_ROCI NEUMANN_LAT NEUMANN_LON NEUMANN_CLASS NEUMANN_WIND NEUMANN_PRES MLC_LAT MLC_LON MLC_CLASS MLC_WIND MLC_PRES USA_GUST BOM_GUST BOM_GUST_PER REUNION_GUST REUNION_GUST_PER USA_SEAHGT USA_SEARAD_NE USA_SEARAD_SE USA_SEARAD_SW USA_SEARAD_NW STORM_SPEED STORM_DIR
1980213N11256 1980 56 EP MM HOWARD 1980-07-31 00:00:00 TS 11.0000 -103.900 30 hurdat_epa main 767 767 O________OO___ hurdat_epa EP081980 11.0000 -103.900 TD 30 -1 11.0000 -103.900 TC 30 11.0000 -103.900 1 30 8 270
1980213N11256 1980 56 EP MM HOWARD 1980-07-31 03:00:00 TS 10.9966 -104.309 main 785 785 P________PP___ EP081980 10.9902 -104.323 TD 30 -1 10.9902 -104.323 TC 30 11.0223 -104.255 1 32 8 271
1980213N11256 1980 56 EP MM HOWARD 1980-07-31 06:00:00 TS 11.0091 -104.681 30 hurdat_epa main 805 805 O________OP___ hurdat_epa EP081980 11.0000 -104.700 TD 30 -1 11.0000 -104.700 TC 30 11.0455 -104.607 1 35 7 274
1980213N11256 1980 56 EP MM HOWARD 1980-07-31 09:00:00 TS 11.0481 -104.997 main 821 811 P________PP___ EP081980 11.0424 -105.007 TD 35 0 11.0424 -105.007 TC 35 11.0710 -104.956 1 37 6 279
1980213N11256 1980 56 EP MM HOWARD 1980-07-31 12:00:00 TS 11.1000 -105.300 40 hurdat_epa main 825 825 O________OO___ hurdat_epa EP081980 11.1000 -105.300 TS 40 0 11.1000 -105.300 TC 40 11.1000 -105.300 2 40 6 279
1980213N11256 1980 56 EP MM HOWARD 1980-07-31 15:00:00 TS 11.1468 -105.636 main 835 828 P________PP___ EP081980 11.1500 -105.635 TS 40 0 11.1500 -105.635 TC 40 11.1343 -105.640 2 42 7 278
1980213N11256 1980 56 EP MM HOWARD 1980-07-31 18:00:00 TS 11.1954 -105.998 40 hurdat_epa main 839 839 O________OP___ hurdat_epa EP081980 11.2000 -106.000 TS 40 0 11.2000 -106.000 TC 40 11.1769 -105.990 2 45 7 277
1980213N11256 1980 56 EP MM HOWARD 1980-07-31 21:00:00 TS 11.2401 -106.370 main 853 847 P________PP___ EP081980 11.2424 -106.370 TS 45 0 11.2424 -106.370 TC 45 11.2311 -106.371 2 47 8 278
1980213N11256 1980 56 EP MM HOWARD 1980-08-01 00:00:00 TS 11.3000 -106.800 50 hurdat_epa main 860 860 O________OO___ hurdat_epa EP081980 11.3000 -106.800 TS 50 0 11.3000 -106.800 TC 50 11.3000 -106.800 2 50 9 279
1980213N11256 1980 56 EP MM HOWARD 1980-08-01 03:00:00 TS 11.3871 -107.323 main 873 873 P________PP___ EP081980 11.3925 -107.327 TS 52 0 11.3925 -107.327 TC 52 11.3655 -107.304 2 52 11 280
1980213N11256 1980 56 EP MM HOWARD 1980-08-01 06:00:00 TS 11.4895 -107.891 55 hurdat_epa main 896 896 O________OP___ hurdat_epa EP081980 11.5000 -107.900 TS 55 0 11.5000 -107.900 TC 55 11.4477 -107.855 2 55 11 280
1980213N11256 1980 56 EP MM HOWARD 1980-08-01 09:00:00 TS 11.5911 -108.446 main 916 916 P________PP___ EP081980 11.5999 -108.450 TS 57 0 11.5999 -108.450 TC 57 11.5560 -108.429 2 57 11 281
1980213N11256 1980 56 EP MM HOWARD 1980-08-01 12:00:00 TS 11.7000 -109.000 60 hurdat_epa main 945 945 O________OO___ hurdat_epa EP081980 11.7000 -109.000 TS 60 0 11.7000 -109.000 TC 60 11.7000 -109.000 2 60 11 280
1980213N11256 1980 56 EP MM HOWARD 1980-08-01 15:00:00 TS 11.7853 -109.553 main 974 974 P________PP___ EP081980 11.7624 -109.558 TS 60 0 11.7624 -109.558 TC 60 11.8765 -109.532 2 62 11 283
1980213N11256 1980 56 EP MM HOWARD 1980-08-01 18:00:00 TS 11.9379 -110.092 60 hurdat_epa main 994 985 O________OP___ hurdat_epa EP081980 11.9000 -110.100 TS 60 0 11.9000 -110.100 TC 60 12.0895 -110.058 2 65 11 294
1980213N11256 1980 56 EP MM HOWARD 1980-08-01 21:00:00 TS 12.2484 -110.596 main 999 990 P________PP___ EP081980 12.2273 -110.600 TS 65 1 12.2273 -110.600 TC 65 12.3328 -110.579 2 67 12 304
1980213N11256 1980 56 EP MM HOWARD 1980-08-02 00:00:00 TS 12.6000 -111.100 70 hurdat_epa main 999 998 O________OO___ hurdat_epa EP081980 12.6000 -111.100 HU 70 1 12.6000 -111.100 TC 70 12.6000 -111.100 3 70 12 300
1980213N11256 1980 56 EP MM HOWARD 1980-08-02 03:00:00 TS 12.8516 -111.649 main 1012 1012 P________PP___ EP081980 12.8500 -111.650 HU 72 1 12.8500 -111.650 TC 72 12.8581 -111.646 3 71 12 295
1980213N11256 1980 56 EP MM HOWARD 1980-08-02 06:00:00 TS 13.1080 -112.198 75 hurdat_epa main 1042 1042 O________OP___ hurdat_epa EP081980 13.1000 -112.200 HU 75 1 13.1000 -112.200 TC 75 13.1400 -112.188 3 72 12 299
1980213N11256 1980 56 EP MM HOWARD 1980-08-02 09:00:00 TS 13.4323 -112.720 main 1057 1050 P________PP___ EP081980 13.4274 -112.723 HU 75 1 13.4274 -112.723 TC 75 13.4519 -112.711 3 73 12 305
1980213N11256 1980 56 EP MM HOWARD 1980-08-02 12:00:00 TS 13.8000 -113.200 75 hurdat_epa main 1069 1044 O________OO___ hurdat_epa EP081980 13.8000 -113.200 HU 75 1 13.8000 -113.200 TC 75 13.8000 -113.200 4 75 12 311
1980213N11256 1980 56 EP MM HOWARD 1980-08-02 15:00:00 TS 14.1881 -113.623 main 1044 1019 P________PP___ EP081980 14.1849 -113.615 HU 75 1 14.1849 -113.615 TC 75 14.2009 -113.656 4 76 11 316
1980213N11256 1980 56 EP MM HOWARD 1980-08-02 18:00:00 TS 14.6069 -114.015 75 hurdat_epa main 1019 992 O________OP___ hurdat_epa EP081980 14.6000 -114.000 HU 75 1 14.6000 -114.000 TC 75 14.6346 -114.075 4 77 12 318
1980213N11256 1980 56 EP MM HOWARD 1980-08-02 21:00:00 TS 15.0613 -114.435 main 987 968 P________PP___ EP081980 15.0576 -114.430 HU 77 1 15.0576 -114.430 TC 77 15.0761 -114.456 4 78 12 320
1980213N11256 1980 56 EP MM HOWARD 1980-08-03 00:00:00 TS 15.5000 -114.800 80 hurdat_epa main 968 951 O________OO___ hurdat_epa EP081980 15.5000 -114.800 HU 80 1 15.5000 -114.800 TC 80 15.5000 -114.800 4 80 10 325
1980213N11256 1980 56 EP MM HOWARD 1980-08-03 03:00:00 TS 15.8685 -115.032 main 942 926 P________PP___ EP081980 15.8648 -115.008 HU 80 1 15.8648 -115.008 TC 80 15.8835 -115.128 4 80 8 329
1980213N11256 1980 56 EP MM HOWARD 1980-08-03 06:00:00 TS 16.2089 -115.244 80 hurdat_epa main 926 918 O________OP___ hurdat_epa EP081980 16.2000 -115.200 HU 80 1 16.2000 -115.200 TC 80 16.2447 -115.418 4 80 9 324
1980213N11256 1980 56 EP MM HOWARD 1980-08-03 09:00:00 TS 16.5688 -115.569 main 916 911 P________PP___ EP081980 16.5651 -115.542 HU 80 1 16.5651 -115.542 TC 80 16.5836 -115.674 4 80 9 318
1980213N11256 1980 56 EP MM HOWARD 1980-08-03 12:00:00 TS 16.9000 -115.900 80 hurdat_epa main 911 909 O________OO___ hurdat_epa EP081980 16.9000 -115.900 HU 80 1 16.9000 -115.900 TC 80 16.9000 -115.900 4 80 8 316
1980213N11256 1980 56 EP MM HOWARD 1980-08-03 15:00:00 TS 17.1636 -116.172 main 908 900 P________PP___ EP081980 17.1575 -116.188 HU 75 1 17.1575 -116.188 TC 75 17.1882 -116.108 4 81 7 318
1980213N11256 1980 56 EP MM HOWARD 1980-08-03 18:00:00 TS 17.4115 -116.378 70 hurdat_epa main 907 892 O________OP___ hurdat_epa EP081980 17.4000 -116.400 HU 70 1 17.4000 -116.400 TC 70 17.4573 -116.288 4 82 6 329
1980213N11256 1980 56 EP MM HOWARD 1980-08-03 21:00:00 TS 17.6985 -116.514 main 892 878 P________PP___ EP081980 17.6925 -116.530 HU 77 1 17.6925 -116.530 TC 77 17.7227 -116.449 4 83 6 340
1980213N11256 1980 56 EP MM HOWARD 1980-08-04 00:00:00 TS 18.0000 -116.600 85 hurdat_epa main 878 852 O________OO___ hurdat_epa EP081980 18.0000 -116.600 HU 85 2 18.0000 -116.600 TC 85 18.0000 -116.600 4 85 6 347
1980213N11256 1980 56 EP MM HOWARD 1980-08-04 03:00:00 TS 18.2969 -116.651 main 858 831 P________PP___ EP081980 18.2924 -116.628 HU 87 2 18.2924 -116.628 TC 87 18.3145 -116.745 4 83 6 348
1980213N11256 1980 56 EP MM HOWARD 1980-08-04 06:00:00 TS 18.6085 -116.737 90 hurdat_epa main 831 815 O________OP___ hurdat_epa EP081980 18.6000 -116.700 HU 90 2 18.6000 -116.700 TC 90 18.6423 -116.885 4 82 7 337
1980213N11256 1980 56 EP MM HOWARD 1980-08-04 09:00:00 TS 18.9548 -116.942 main 806 800 P________PP___ EP081980 18.9501 -116.920 HU 85 2 18.9501 -116.920 TC 85 18.9739 -117.033 4 81 8 328
1980213N11256 1980 56 EP MM HOWARD 1980-08-04 12:00:00 TS 19.3000 -117.200 80 hurdat_epa main 800 789 O________OO___ hurdat_epa EP081980 19.3000 -117.200 HU 80 1 19.3000 -117.200 TC 80 19.3000 -117.200 4 80 8 324
1980213N11256 1980 56 EP MM HOWARD 1980-08-04 15:00:00 TS 19.6107 -117.448 main 789 779 P________PP___ EP081980 19.6075 -117.458 HU 80 1 19.6075 -117.458 TC 80 19.6235 -117.407 4 80 8 323
1980213N11256 1980 56 EP MM HOWARD 1980-08-04 18:00:00 TS 19.9075 -117.687 80 hurdat_epa main 786 778 O________OP___ hurdat_epa EP081980 19.9000 -117.700 HU 80 1 19.9000 -117.700 TC 80 19.9376 -117.635 4 80 7 325
1980213N11256 1980 56 EP MM HOWARD 1980-08-04 21:00:00 TS 20.2185 -117.900 main 778 771 P________PP___ EP081980 20.2149 -117.908 HU 80 1 20.2149 -117.908 TC 80 20.2329 -117.870 4 80 7 327
1980213N11256 1980 56 EP MM HOWARD 1980-08-05 00:00:00 TS 20.5000 -118.100 80 hurdat_epa main 772 765 O________OO___ hurdat_epa EP081980 20.5000 -118.100 HU 80 1 20.5000 -118.100 TC 80 20.5000 -118.100 4 80 6 323
1980213N11256 1980 56 EP MM HOWARD 1980-08-05 03:00:00 TS 20.7161 -118.302 main 775 768 P________PP___ EP081980 20.7150 -118.300 HU 75 1 20.7150 -118.300 TC 75 20.7205 -118.308 4 76 6 317
1980213N11256 1980 56 EP MM HOWARD 1980-08-05 06:00:00 TS 20.9030 -118.502 70 hurdat_epa main 778 778 O________OP___ hurdat_epa EP081980 20.9000 -118.500 HU 70 1 20.9000 -118.500 TC 70 20.9148 -118.508 4 72 5 315
1980213N11256 1980 56 EP MM HOWARD 1980-08-05 09:00:00 TS 21.0944 -118.707 main 783 783 P________PP___ EP081980 21.0925 -118.708 HU 67 1 21.0925 -118.708 TC 67 21.1018 -118.705 4 68 5 317
1980213N11256 1980 56 EP MM HOWARD 1980-08-05 12:00:00 TS 21.3000 -118.900 65 hurdat_epa main 788 783 O________OO___ hurdat_epa EP081980 21.3000 -118.900 HU 65 1 21.3000 -118.900 TC 65 21.3000 -118.900 4 65 6 324
1980213N11256 1980 56 EP MM HOWARD 1980-08-05 15:00:00 TS 21.5386 -119.056 main 794 774 P________PP___ EP081980 21.5424 -119.043 HU 65 1 21.5424 -119.043 TC 65 21.5234 -119.108 4 63 6 329
1980213N11256 1980 56 EP MM HOWARD 1980-08-05 18:00:00 TS 21.7925 -119.223 65 hurdat_epa main 774 769 O________OP___ hurdat_epa EP081980 21.8000 -119.200 HU 65 1 21.8000 -119.200 TC 65 21.7625 -119.315 4 62 6 323
1980213N11256 1980 56 EP MM HOWARD 1980-08-05 21:00:00 TS 22.0321 -119.463 main 776 765 P________PP___ EP081980 22.0351 -119.450 HU 62 0 22.0351 -119.450 TC 62 22.0203 -119.515 4 61 7 319
1980213N11256 1980 56 EP MM HOWARD 1980-08-06 00:00:00 TS 22.3000 -119.700 60 hurdat_epa main 765 746 O________OO___ hurdat_epa EP081980 22.3000 -119.700 TS 60 0 22.3000 -119.700 TC 60 22.3000 -119.700 2 60 7 328
1980213N11256 1980 56 EP MM HOWARD 1980-08-06 03:00:00 TS 22.6354 -119.865 main 753 726 P________PP___ EP081980 22.6424 -119.865 TS 55 0 22.6424 -119.865 TC 55 22.6074 -119.865 2 56 7 338
1980213N11256 1980 56 EP MM HOWARD 1980-08-06 06:00:00 TS 22.9870 -120.003 50 hurdat_epa main 726 709 O________OP___ hurdat_epa EP081980 23.0000 -120.000 TS 50 0 23.0000 -120.000 TC 50 22.9349 -120.015 2 52 7 339
1980213N11256 1980 56 EP MM HOWARD 1980-08-06 09:00:00 TS 23.2939 -120.146 main 709 700 P________PP___ EP081980 23.3000 -120.143 TS 47 0 23.3000 -120.143 TC 47 23.2699 -120.158 2 48 7 336
1980213N11256 1980 56 EP MM HOWARD 1980-08-06 12:00:00 TS 23.6000 -120.300 45 hurdat_epa main 700 686 O________OO___ hurdat_epa EP081980 23.6000 -120.300 TS 45 0 23.6000 -120.300 TC 45 23.6000 -120.300 2 45 7 334
1980213N11256 1980 56 EP MM HOWARD 1980-08-06 15:00:00 TS 23.9496 -120.496 main 694 682 P________PP___ EP081980 23.9576 -120.507 TS 42 0 23.9576 -120.507 TC 42 23.9178 -120.450 2 42 8 333
1980213N11256 1980 56 EP MM HOWARD 1980-08-06 18:00:00 TS 24.2854 -120.680 40 hurdat_epa main 684 677 O________OP___ hurdat_epa EP081980 24.3000 -120.700 TS 40 0 24.3000 -120.700 TC 40 24.2272 -120.600 2 40 7 336
1980213N11256 1980 56 EP MM HOWARD 1980-08-06 21:00:00 TS 24.5565 -120.796 main 674 668 P________PP___ EP081980 24.5649 -120.808 TS 37 0 24.5649 -120.808 TC 37 24.5230 -120.750 2 37 6 339
1980213N11256 1980 56 EP MM HOWARD 1980-08-07 00:00:00 TS 24.8000 -120.900 35 hurdat_epa main 671 665 O________OO___ hurdat_epa EP081980 24.8000 -120.900 TS 35 0 24.8000 -120.900 TC 35 24.8000 -120.900 2 35 5 336
1980213N11256 1980 56 EP MM HOWARD 1980-08-07 03:00:00 TS 25.0473 -121.038 main 669 663 P________PP___ EP081980 25.0451 -121.035 TS 30 -1 25.0451 -121.035 TC 30 25.0560 -121.050 2 30 6 331
1980213N11256 1980 56 EP MM HOWARD 1980-08-07 06:00:00 TS 25.3000 -121.200 25 hurdat_epa main 672 O________OO___ hurdat_epa EP081980 25.3000 -121.200 TD 25 -1 25.3000 -121.200 TC 25 25.3000 -121.200 1 25 6 329

IBTrACS Databaseについて

本データベースは、米国NOAAが公開する1842年以降の世界の熱帯低気圧のベストトラックデータアーカイブInternational Best Track Archive for Climate Stewardship (IBTrACS)を、ウェブで閲覧しやすい形式に変換したものです。

最終更新日:2021-12-01